sensor_id;sensor_type;location;lat;lon;timestamp;P1;durP1;ratioP1;P2;durP2;ratioP2
17618;SDS011;8928;51.678;6.074;2023-07-13T00:01:06;12.10;;;3.93;;
17618;SDS011;8928;51.678;6.074;2023-07-13T00:03:53;15.43;;;4.13;;
17618;SDS011;8928;51.678;6.074;2023-07-13T00:06:41;10.33;;;3.60;;
17618;SDS011;8928;51.678;6.074;2023-07-13T00:09:30;15.10;;;3.77;;
17618;SDS011;8928;51.678;6.074;2023-07-13T00:12:24;14.83;;;3.90;;
17618;SDS011;8928;51.678;6.074;2023-07-13T00:15:13;9.73;;;3.80;;
17618;SDS011;8928;51.678;6.074;2023-07-13T00:18:02;10.47;;;3.40;;
17618;SDS011;8928;51.678;6.074;2023-07-13T00:20:49;10.30;;;3.77;;
17618;SDS011;8928;51.678;6.074;2023-07-13T00:23:39;13.27;;;3.47;;
17618;SDS011;8928;51.678;6.074;2023-07-13T00:26:27;12.00;;;3.50;;
17618;SDS011;8928;51.678;6.074;2023-07-13T00:29:14;8.13;;;3.43;;
17618;SDS011;8928;51.678;6.074;2023-07-13T00:32:02;12.90;;;3.10;;
17618;SDS011;8928;51.678;6.074;2023-07-13T00:34:49;13.27;;;3.20;;
17618;SDS011;8928;51.678;6.074;2023-07-13T00:37:36;15.00;;;3.27;;
17618;SDS011;8928;51.678;6.074;2023-07-13T00:40:25;9.73;;;3.13;;
17618;SDS011;8928;51.678;6.074;2023-07-13T00:43:13;8.47;;;3.07;;
17618;SDS011;8928;51.678;6.074;2023-07-13T00:46:09;10.13;;;3.20;;
17618;SDS011;8928;51.678;6.074;2023-07-13T00:49:09;11.60;;;3.23;;
17618;SDS011;8928;51.678;6.074;2023-07-13T00:52:01;9.80;;;3.13;;
17618;SDS011;8928;51.678;6.074;2023-07-13T00:54:51;11.57;;;3.20;;
17618;SDS011;8928;51.678;6.074;2023-07-13T00:57:40;9.43;;;2.73;;
17618;SDS011;8928;51.678;6.074;2023-07-13T01:00:27;11.80;;;2.90;;
17618;SDS011;8928;51.678;6.074;2023-07-13T01:03:16;7.13;;;2.70;;
17618;SDS011;8928;51.678;6.074;2023-07-13T01:06:03;16.27;;;3.57;;
17618;SDS011;8928;51.678;6.074;2023-07-13T01:08:51;8.37;;;3.10;;
17618;SDS011;8928;51.678;6.074;2023-07-13T01:11:39;6.97;;;2.50;;
17618;SDS011;8928;51.678;6.074;2023-07-13T01:14:28;7.80;;;2.60;;
17618;SDS011;8928;51.678;6.074;2023-07-13T01:17:15;13.17;;;3.17;;
17618;SDS011;8928;51.678;6.074;2023-07-13T01:20:03;8.37;;;2.87;;
17618;SDS011;8928;51.678;6.074;2023-07-13T01:22:53;9.87;;;3.10;;
17618;SDS011;8928;51.678;6.074;2023-07-13T01:25:40;9.63;;;2.83;;
17618;SDS011;8928;51.678;6.074;2023-07-13T01:28:27;6.13;;;2.60;;
17618;SDS011;8928;51.678;6.074;2023-07-13T01:31:15;12.90;;;2.97;;
17618;SDS011;8928;51.678;6.074;2023-07-13T01:34:02;9.03;;;2.70;;
17618;SDS011;8928;51.678;6.074;2023-07-13T01:36:50;10.00;;;2.53;;
17618;SDS011;8928;51.678;6.074;2023-07-13T01:39:40;12.67;;;2.63;;
17618;SDS011;8928;51.678;6.074;2023-07-13T01:42:27;14.47;;;2.50;;
17618;SDS011;8928;51.678;6.074;2023-07-13T01:45:14;9.73;;;2.57;;
17618;SDS011;8928;51.678;6.074;2023-07-13T01:48:02;9.53;;;2.40;;
17618;SDS011;8928;51.678;6.074;2023-07-13T01:50:49;7.67;;;2.43;;
17618;SDS011;8928;51.678;6.074;2023-07-13T01:53:36;11.07;;;2.57;;
17618;SDS011;8928;51.678;6.074;2023-07-13T01:56:24;11.10;;;2.60;;
17618;SDS011;8928;51.678;6.074;2023-07-13T01:59:11;5.60;;;2.50;;
17618;SDS011;8928;51.678;6.074;2023-07-13T02:01:58;8.67;;;2.37;;
17618;SDS011;8928;51.678;6.074;2023-07-13T02:04:46;11.23;;;2.60;;
17618;SDS011;8928;51.678;6.074;2023-07-13T02:07:33;11.63;;;2.70;;
17618;SDS011;8928;51.678;6.074;2023-07-13T02:10:20;12.73;;;2.90;;
17618;SDS011;8928;51.678;6.074;2023-07-13T02:13:08;9.97;;;2.70;;
17618;SDS011;8928;51.678;6.074;2023-07-13T02:15:55;10.60;;;2.80;;
17618;SDS011;8928;51.678;6.074;2023-07-13T02:18:42;9.10;;;2.47;;
17618;SDS011;8928;51.678;6.074;2023-07-13T02:21:29;8.67;;;2.70;;
17618;SDS011;8928;51.678;6.074;2023-07-13T02:24:16;8.90;;;2.63;;
17618;SDS011;8928;51.678;6.074;2023-07-13T02:27:06;11.57;;;2.43;;
17618;SDS011;8928;51.678;6.074;2023-07-13T02:29:54;9.93;;;2.37;;
17618;SDS011;8928;51.678;6.074;2023-07-13T02:32:41;9.93;;;2.80;;
17618;SDS011;8928;51.678;6.074;2023-07-13T02:35:29;7.87;;;2.33;;
17618;SDS011;8928;51.678;6.074;2023-07-13T02:38:16;6.70;;;2.70;;
17618;SDS011;8928;51.678;6.074;2023-07-13T02:41:03;9.60;;;2.30;;
17618;SDS011;8928;51.678;6.074;2023-07-13T02:43:50;8.60;;;2.70;;
17618;SDS011;8928;51.678;6.074;2023-07-13T02:46:39;12.33;;;2.80;;
17618;SDS011;8928;51.678;6.074;2023-07-13T02:49:26;11.33;;;2.63;;
17618;SDS011;8928;51.678;6.074;2023-07-13T02:52:13;6.77;;;2.57;;
17618;SDS011;8928;51.678;6.074;2023-07-13T02:55:00;8.90;;;2.70;;
17618;SDS011;8928;51.678;6.074;2023-07-13T02:57:47;14.00;;;2.80;;
17618;SDS011;8928;51.678;6.074;2023-07-13T03:00:34;9.73;;;2.57;;
17618;SDS011;8928;51.678;6.074;2023-07-13T03:03:27;12.90;;;2.83;;
17618;SDS011;8928;51.678;6.074;2023-07-13T03:06:15;9.23;;;2.43;;
17618;SDS011;8928;51.678;6.074;2023-07-13T03:09:02;10.53;;;2.67;;
17618;SDS011;8928;51.678;6.074;2023-07-13T03:11:51;8.57;;;2.80;;
17618;SDS011;8928;51.678;6.074;2023-07-13T03:14:39;12.07;;;2.80;;
17618;SDS011;8928;51.678;6.074;2023-07-13T03:17:26;9.83;;;2.70;;
17618;SDS011;8928;51.678;6.074;2023-07-13T03:20:14;11.33;;;2.50;;
17618;SDS011;8928;51.678;6.074;2023-07-13T03:23:02;8.40;;;2.67;;
17618;SDS011;8928;51.678;6.074;2023-07-13T03:25:49;10.33;;;2.90;;
17618;SDS011;8928;51.678;6.074;2023-07-13T03:28:37;11.87;;;2.60;;
17618;SDS011;8928;51.678;6.074;2023-07-13T03:31:25;12.13;;;2.97;;
17618;SDS011;8928;51.678;6.074;2023-07-13T03:34:13;9.77;;;2.87;;
17618;SDS011;8928;51.678;6.074;2023-07-13T03:37:02;7.20;;;2.53;;
17618;SDS011;8928;51.678;6.074;2023-07-13T03:39:49;12.17;;;2.90;;
17618;SDS011;8928;51.678;6.074;2023-07-13T03:42:36;15.30;;;3.10;;
17618;SDS011;8928;51.678;6.074;2023-07-13T03:45:23;11.20;;;2.73;;
17618;SDS011;8928;51.678;6.074;2023-07-13T03:48:10;9.90;;;2.80;;
17618;SDS011;8928;51.678;6.074;2023-07-13T03:50:58;8.80;;;2.67;;
17618;SDS011;8928;51.678;6.074;2023-07-13T03:53:46;12.07;;;3.00;;
17618;SDS011;8928;51.678;6.074;2023-07-13T03:56:34;15.80;;;3.17;;
17618;SDS011;8928;51.678;6.074;2023-07-13T03:59:21;13.53;;;3.33;;
17618;SDS011;8928;51.678;6.074;2023-07-13T04:02:09;10.07;;;2.87;;
17618;SDS011;8928;51.678;6.074;2023-07-13T04:04:56;14.73;;;3.27;;
17618;SDS011;8928;51.678;6.074;2023-07-13T04:07:43;9.27;;;3.00;;
17618;SDS011;8928;51.678;6.074;2023-07-13T04:10:31;10.73;;;3.20;;
17618;SDS011;8928;51.678;6.074;2023-07-13T04:13:18;8.83;;;2.90;;
17618;SDS011;8928;51.678;6.074;2023-07-13T04:16:06;15.00;;;3.40;;
17618;SDS011;8928;51.678;6.074;2023-07-13T04:18:53;10.50;;;3.20;;
17618;SDS011;8928;51.678;6.074;2023-07-13T04:21:44;14.73;;;3.87;;
17618;SDS011;8928;51.678;6.074;2023-07-13T04:24:31;11.23;;;3.30;;
17618;SDS011;8928;51.678;6.074;2023-07-13T04:27:20;16.03;;;3.17;;
17618;SDS011;8928;51.678;6.074;2023-07-13T04:30:07;14.97;;;3.30;;
17618;SDS011;8928;51.678;6.074;2023-07-13T04:32:55;17.80;;;3.57;;
17618;SDS011;8928;51.678;6.074;2023-07-13T04:35:42;13.57;;;3.60;;
17618;SDS011;8928;51.678;6.074;2023-07-13T04:38:29;8.80;;;3.30;;
17618;SDS011;8928;51.678;6.074;2023-07-13T04:41:18;12.97;;;3.40;;
17618;SDS011;8928;51.678;6.074;2023-07-13T04:44:06;11.00;;;3.23;;
17618;SDS011;8928;51.678;6.074;2023-07-13T04:46:53;13.80;;;3.73;;
17618;SDS011;8928;51.678;6.074;2023-07-13T04:49:40;9.43;;;3.33;;
17618;SDS011;8928;51.678;6.074;2023-07-13T04:52:27;10.23;;;3.20;;
17618;SDS011;8928;51.678;6.074;2023-07-13T04:55:14;16.07;;;3.73;;
17618;SDS011;8928;51.678;6.074;2023-07-13T04:58:02;13.53;;;3.90;;
17618;SDS011;8928;51.678;6.074;2023-07-13T05:00:51;17.87;;;4.00;;
17618;SDS011;8928;51.678;6.074;2023-07-13T05:03:38;19.83;;;3.97;;
17618;SDS011;8928;51.678;6.074;2023-07-13T05:06:25;22.40;;;4.40;;
17618;SDS011;8928;51.678;6.074;2023-07-13T05:09:13;15.97;;;4.40;;
17618;SDS011;8928;51.678;6.074;2023-07-13T05:12:00;12.07;;;4.10;;
17618;SDS011;8928;51.678;6.074;2023-07-13T05:14:47;16.80;;;4.10;;
17618;SDS011;8928;51.678;6.074;2023-07-13T05:17:36;16.60;;;4.30;;
17618;SDS011;8928;51.678;6.074;2023-07-13T05:20:24;18.23;;;4.30;;
17618;SDS011;8928;51.678;6.074;2023-07-13T05:23:11;15.87;;;4.80;;
17618;SDS011;8928;51.678;6.074;2023-07-13T05:25:59;19.83;;;5.10;;
17618;SDS011;8928;51.678;6.074;2023-07-13T05:28:46;19.17;;;5.27;;
17618;SDS011;8928;51.678;6.074;2023-07-13T05:31:33;19.63;;;5.87;;
17618;SDS011;8928;51.678;6.074;2023-07-13T05:34:22;19.33;;;4.90;;
17618;SDS011;8928;51.678;6.074;2023-07-13T05:37:09;24.53;;;6.10;;
17618;SDS011;8928;51.678;6.074;2023-07-13T05:39:57;21.60;;;6.20;;
17618;SDS011;8928;51.678;6.074;2023-07-13T05:42:44;25.40;;;6.73;;
17618;SDS011;8928;51.678;6.074;2023-07-13T05:45:31;30.07;;;7.83;;
17618;SDS011;8928;51.678;6.074;2023-07-13T05:48:18;22.47;;;7.23;;
17618;SDS011;8928;51.678;6.074;2023-07-13T05:51:06;23.17;;;7.40;;
17618;SDS011;8928;51.678;6.074;2023-07-13T05:53:53;28.20;;;7.40;;
17618;SDS011;8928;51.678;6.074;2023-07-13T05:56:40;29.37;;;7.97;;
17618;SDS011;8928;51.678;6.074;2023-07-13T05:59:27;28.93;;;8.40;;
17618;SDS011;8928;51.678;6.074;2023-07-13T06:02:14;28.17;;;8.00;;
17618;SDS011;8928;51.678;6.074;2023-07-13T06:05:01;32.70;;;8.20;;
17618;SDS011;8928;51.678;6.074;2023-07-13T06:07:50;28.10;;;8.87;;
17618;SDS011;8928;51.678;6.074;2023-07-13T06:10:37;27.03;;;9.07;;
17618;SDS011;8928;51.678;6.074;2023-07-13T06:13:24;29.47;;;9.13;;
17618;SDS011;8928;51.678;6.074;2023-07-13T06:16:12;31.40;;;9.07;;
17618;SDS011;8928;51.678;6.074;2023-07-13T06:18:59;27.00;;;9.10;;
17618;SDS011;8928;51.678;6.074;2023-07-13T06:21:47;28.47;;;8.70;;
17618;SDS011;8928;51.678;6.074;2023-07-13T06:24:35;27.53;;;9.27;;
17618;SDS011;8928;51.678;6.074;2023-07-13T06:27:22;30.63;;;9.87;;
17618;SDS011;8928;51.678;6.074;2023-07-13T06:30:10;27.27;;;9.17;;
17618;SDS011;8928;51.678;6.074;2023-07-13T06:32:57;29.90;;;9.47;;
17618;SDS011;8928;51.678;6.074;2023-07-13T06:35:45;33.27;;;9.60;;
17618;SDS011;8928;51.678;6.074;2023-07-13T06:38:32;28.67;;;9.83;;
17618;SDS011;8928;51.678;6.074;2023-07-13T06:41:20;32.57;;;9.47;;
17618;SDS011;8928;51.678;6.074;2023-07-13T06:44:08;29.47;;;9.50;;
17618;SDS011;8928;51.678;6.074;2023-07-13T06:46:55;28.20;;;8.47;;
17618;SDS011;8928;51.678;6.074;2023-07-13T06:49:42;26.13;;;8.37;;
17618;SDS011;8928;51.678;6.074;2023-07-13T06:52:29;27.97;;;8.47;;
17618;SDS011;8928;51.678;6.074;2023-07-13T06:55:16;23.93;;;7.77;;
17618;SDS011;8928;51.678;6.074;2023-07-13T06:58:04;26.10;;;7.67;;
17618;SDS011;8928;51.678;6.074;2023-07-13T07:00:52;27.67;;;8.18;;
17618;SDS011;8928;51.678;6.074;2023-07-13T07:03:39;21.83;;;7.15;;
17618;SDS011;8928;51.678;6.074;2023-07-13T07:06:26;26.58;;;7.60;;
17618;SDS011;8928;51.678;6.074;2023-07-13T07:09:13;27.88;;;7.63;;
17618;SDS011;8928;51.678;6.074;2023-07-13T07:12:02;22.13;;;7.13;;
17618;SDS011;8928;51.678;6.074;2023-07-13T07:14:51;23.95;;;6.93;;
17618;SDS011;8928;51.678;6.074;2023-07-13T07:17:38;18.85;;;7.03;;
17618;SDS011;8928;51.678;6.074;2023-07-13T07:20:25;24.70;;;7.13;;
17618;SDS011;8928;51.678;6.074;2023-07-13T07:23:13;17.17;;;7.25;;
17618;SDS011;8928;51.678;6.074;2023-07-13T07:26:00;17.88;;;7.47;;
17618;SDS011;8928;51.678;6.074;2023-07-13T07:28:47;20.77;;;7.10;;
17618;SDS011;8928;51.678;6.074;2023-07-13T07:31:35;20.88;;;7.47;;
17618;SDS011;8928;51.678;6.074;2023-07-13T07:34:22;23.58;;;7.30;;
17618;SDS011;8928;51.678;6.074;2023-07-13T07:37:09;20.85;;;6.50;;
17618;SDS011;8928;51.678;6.074;2023-07-13T07:39:58;21.75;;;6.60;;
17618;SDS011;8928;51.678;6.074;2023-07-13T07:42:45;22.92;;;6.72;;
17618;SDS011;8928;51.678;6.074;2023-07-13T07:45:32;20.00;;;6.38;;
17618;SDS011;8928;51.678;6.074;2023-07-13T07:48:21;21.92;;;6.68;;
17618;SDS011;8928;51.678;6.074;2023-07-13T07:51:08;23.15;;;6.30;;
17618;SDS011;8928;51.678;6.074;2023-07-13T07:53:55;21.17;;;6.75;;
17618;SDS011;8928;51.678;6.074;2023-07-13T07:56:42;20.33;;;6.60;;
17618;SDS011;8928;51.678;6.074;2023-07-13T07:59:29;23.42;;;6.95;;
17618;SDS011;8928;51.678;6.074;2023-07-13T08:02:16;18.98;;;6.18;;
17618;SDS011;8928;51.678;6.074;2023-07-13T08:05:05;22.33;;;7.05;;
17618;SDS011;8928;51.678;6.074;2023-07-13T08:07:52;18.00;;;6.72;;
17618;SDS011;8928;51.678;6.074;2023-07-13T08:10:40;20.92;;;6.65;;
17618;SDS011;8928;51.678;6.074;2023-07-13T08:13:27;21.98;;;6.80;;
17618;SDS011;8928;51.678;6.074;2023-07-13T08:16:14;18.80;;;7.47;;
17618;SDS011;8928;51.678;6.074;2023-07-13T08:19:01;22.65;;;6.97;;
17618;SDS011;8928;51.678;6.074;2023-07-13T08:21:50;18.77;;;6.53;;
17618;SDS011;8928;51.678;6.074;2023-07-13T08:24:38;23.75;;;7.00;;
17618;SDS011;8928;51.678;6.074;2023-07-13T08:27:25;19.50;;;6.40;;
17618;SDS011;8928;51.678;6.074;2023-07-13T08:30:14;19.67;;;7.20;;
17618;SDS011;8928;51.678;6.074;2023-07-13T08:33:01;18.70;;;6.35;;
17618;SDS011;8928;51.678;6.074;2023-07-13T08:35:48;23.58;;;7.03;;
17618;SDS011;8928;51.678;6.074;2023-07-13T08:38:37;16.65;;;6.80;;
17618;SDS011;8928;51.678;6.074;2023-07-13T08:41:24;22.58;;;7.07;;
17618;SDS011;8928;51.678;6.074;2023-07-13T08:44:15;18.83;;;6.45;;
17618;SDS011;8928;51.678;6.074;2023-07-13T08:47:08;17.92;;;6.65;;
17618;SDS011;8928;51.678;6.074;2023-07-13T08:49:58;18.63;;;6.30;;
17618;SDS011;8928;51.678;6.074;2023-07-13T08:52:47;19.50;;;6.63;;
17618;SDS011;8928;51.678;6.074;2023-07-13T08:55:36;20.67;;;6.50;;
17618;SDS011;8928;51.678;6.074;2023-07-13T08:58:24;18.60;;;5.97;;
17618;SDS011;8928;51.678;6.074;2023-07-13T09:01:16;19.35;;;5.88;;
17618;SDS011;8928;51.678;6.074;2023-07-13T09:04:12;22.08;;;5.97;;
17618;SDS011;8928;51.678;6.074;2023-07-13T09:07:04;14.13;;;5.60;;
17618;SDS011;8928;51.678;6.074;2023-07-13T09:10:00;19.13;;;5.95;;
17618;SDS011;8928;51.678;6.074;2023-07-13T09:12:58;21.67;;;5.20;;
17618;SDS011;8928;51.678;6.074;2023-07-13T09:15:58;13.50;;;5.03;;
17618;SDS011;8928;51.678;6.074;2023-07-13T09:18:47;21.38;;;5.03;;
17618;SDS011;8928;51.678;6.074;2023-07-13T09:21:37;16.35;;;5.25;;
17618;SDS011;8928;51.678;6.074;2023-07-13T09:24:29;15.10;;;4.90;;
17618;SDS011;8928;51.678;6.074;2023-07-13T09:27:23;13.32;;;4.63;;
17618;SDS011;8928;51.678;6.074;2023-07-13T09:30:23;15.50;;;4.63;;
17618;SDS011;8928;51.678;6.074;2023-07-13T09:33:16;12.90;;;3.90;;
17618;SDS011;8928;51.678;6.074;2023-07-13T09:36:09;20.73;;;4.72;;
17618;SDS011;8928;51.678;6.074;2023-07-13T09:39:09;14.57;;;4.18;;
17618;SDS011;8928;51.678;6.074;2023-07-13T09:42:01;15.15;;;4.57;;
17618;SDS011;8928;51.678;6.074;2023-07-13T09:44:59;14.55;;;4.03;;
17618;SDS011;8928;51.678;6.074;2023-07-13T09:47:50;15.77;;;4.60;;
17618;SDS011;8928;51.678;6.074;2023-07-13T09:50:45;15.20;;;4.18;;
17618;SDS011;8928;51.678;6.074;2023-07-13T09:53:33;10.85;;;3.97;;
17618;SDS011;8928;51.678;6.074;2023-07-13T09:56:20;11.48;;;3.42;;
17618;SDS011;8928;51.678;6.074;2023-07-13T09:59:17;15.45;;;4.00;;
17618;SDS011;8928;51.678;6.074;2023-07-13T10:02:16;11.82;;;3.50;;
17618;SDS011;8928;51.678;6.074;2023-07-13T10:05:13;14.57;;;3.80;;
17618;SDS011;8928;51.678;6.074;2023-07-13T10:08:01;12.70;;;3.90;;
17618;SDS011;8928;51.678;6.074;2023-07-13T10:10:51;15.70;;;3.85;;
17618;SDS011;8928;51.678;6.074;2023-07-13T10:13:41;9.95;;;3.10;;
17618;SDS011;8928;51.678;6.074;2023-07-13T10:16:31;11.93;;;3.10;;
17618;SDS011;8928;51.678;6.074;2023-07-13T10:19:21;9.85;;;3.42;;
17618;SDS011;8928;51.678;6.074;2023-07-13T10:22:25;8.90;;;3.00;;
17618;SDS011;8928;51.678;6.074;2023-07-13T10:25:19;8.60;;;2.85;;
17618;SDS011;8928;51.678;6.074;2023-07-13T10:28:11;9.30;;;3.00;;
17618;SDS011;8928;51.678;6.074;2023-07-13T10:31:10;10.02;;;2.78;;
17618;SDS011;8928;51.678;6.074;2023-07-13T10:34:00;10.27;;;2.78;;
17618;SDS011;8928;51.678;6.074;2023-07-13T10:36:47;9.10;;;2.78;;
17618;SDS011;8928;51.678;6.074;2023-07-13T10:39:36;7.45;;;2.63;;
17618;SDS011;8928;51.678;6.074;2023-07-13T10:42:27;11.63;;;2.80;;
17618;SDS011;8928;51.678;6.074;2023-07-13T10:45:18;7.50;;;2.95;;
17618;SDS011;8928;51.678;6.074;2023-07-13T10:48:08;11.10;;;2.60;;
17618;SDS011;8928;51.678;6.074;2023-07-13T10:50:59;6.65;;;2.35;;
17618;SDS011;8928;51.678;6.074;2023-07-13T10:53:47;9.38;;;2.33;;
17618;SDS011;8928;51.678;6.074;2023-07-13T10:57:10;5.22;;;2.40;;
17618;SDS011;8928;51.678;6.074;2023-07-13T11:00:13;11.05;;;2.40;;
17618;SDS011;8928;51.678;6.074;2023-07-13T11:03:04;6.57;;;2.47;;
17618;SDS011;8928;51.678;6.074;2023-07-13T11:05:51;7.28;;;2.20;;
17618;SDS011;8928;51.678;6.074;2023-07-13T11:08:55;7.07;;;2.40;;
17618;SDS011;8928;51.678;6.074;2023-07-13T11:11:43;7.85;;;2.33;;
17618;SDS011;8928;51.678;6.074;2023-07-13T11:14:34;10.05;;;2.50;;
17618;SDS011;8928;51.678;6.074;2023-07-13T11:17:24;6.18;;;2.20;;
17618;SDS011;8928;51.678;6.074;2023-07-13T11:20:31;6.75;;;2.05;;
17618;SDS011;8928;51.678;6.074;2023-07-13T11:23:30;9.10;;;2.10;;
17618;SDS011;8928;51.678;6.074;2023-07-13T11:26:37;7.55;;;2.28;;
17618;SDS011;8928;51.678;6.074;2023-07-13T11:29:27;6.60;;;2.10;;
17618;SDS011;8928;51.678;6.074;2023-07-13T11:32:25;6.95;;;2.10;;
17618;SDS011;8928;51.678;6.074;2023-07-13T11:35:18;6.28;;;2.28;;
17618;SDS011;8928;51.678;6.074;2023-07-13T11:38:12;10.07;;;2.50;;
17618;SDS011;8928;51.678;6.074;2023-07-13T11:41:03;7.10;;;2.30;;
17618;SDS011;8928;51.678;6.074;2023-07-13T11:43:53;13.15;;;4.30;;
17618;SDS011;8928;51.678;6.074;2023-07-13T11:46:47;18.75;;;5.55;;
17618;SDS011;8928;51.678;6.074;2023-07-13T11:49:40;10.05;;;3.83;;
17618;SDS011;8928;51.678;6.074;2023-07-13T11:52:30;9.00;;;3.40;;
17618;SDS011;8928;51.678;6.074;2023-07-13T11:55:20;8.03;;;4.43;;
17618;SDS011;8928;51.678;6.074;2023-07-13T11:58:09;10.17;;;4.90;;
17618;SDS011;8928;51.678;6.074;2023-07-13T12:00:58;8.55;;;4.63;;
17618;SDS011;8928;51.678;6.074;2023-07-13T12:03:51;9.77;;;4.60;;
17618;SDS011;8928;51.678;6.074;2023-07-13T12:06:39;7.40;;;4.55;;
17618;SDS011;8928;51.678;6.074;2023-07-13T12:09:28;9.07;;;5.07;;
17618;SDS011;8928;51.678;6.074;2023-07-13T12:12:17;8.55;;;4.78;;
17618;SDS011;8928;51.678;6.074;2023-07-13T12:15:06;7.47;;;4.30;;
17618;SDS011;8928;51.678;6.074;2023-07-13T12:17:53;12.18;;;4.60;;
17618;SDS011;8928;51.678;6.074;2023-07-13T12:20:44;9.95;;;5.28;;
17618;SDS011;8928;51.678;6.074;2023-07-13T12:23:33;9.70;;;4.72;;
17618;SDS011;8928;51.678;6.074;2023-07-13T12:26:21;11.40;;;5.57;;
17618;SDS011;8928;51.678;6.074;2023-07-13T12:29:11;9.93;;;6.25;;
17618;SDS011;8928;51.678;6.074;2023-07-13T12:32:07;8.20;;;5.20;;
17618;SDS011;8928;51.678;6.074;2023-07-13T12:34:55;9.35;;;4.40;;
17618;SDS011;8928;51.678;6.074;2023-07-13T12:37:45;9.25;;;5.22;;
17618;SDS011;8928;51.678;6.074;2023-07-13T12:40:33;9.75;;;4.20;;
17618;SDS011;8928;51.678;6.074;2023-07-13T12:43:22;6.40;;;3.70;;
17618;SDS011;8928;51.678;6.074;2023-07-13T12:46:15;5.50;;;3.22;;
17618;SDS011;8928;51.678;6.074;2023-07-13T12:49:05;6.80;;;3.70;;
17618;SDS011;8928;51.678;6.074;2023-07-13T12:51:57;8.98;;;4.07;;
17618;SDS011;8928;51.678;6.074;2023-07-13T12:54:53;7.70;;;3.72;;
17618;SDS011;8928;51.678;6.074;2023-07-13T12:57:45;8.75;;;4.20;;
17618;SDS011;8928;51.678;6.074;2023-07-13T13:00:36;7.70;;;3.97;;
17618;SDS011;8928;51.678;6.074;2023-07-13T13:03:26;8.52;;;4.13;;
17618;SDS011;8928;51.678;6.074;2023-07-13T13:06:20;11.60;;;4.72;;
17618;SDS011;8928;51.678;6.074;2023-07-13T13:09:11;6.20;;;4.30;;
17618;SDS011;8928;51.678;6.074;2023-07-13T13:12:01;11.98;;;4.72;;
17618;SDS011;8928;51.678;6.074;2023-07-13T13:14:48;12.63;;;4.95;;
17618;SDS011;8928;51.678;6.074;2023-07-13T13:17:35;9.45;;;5.68;;
17618;SDS011;8928;51.678;6.074;2023-07-13T13:20:22;10.95;;;5.32;;
17618;SDS011;8928;51.678;6.074;2023-07-13T13:23:11;10.88;;;5.55;;
17618;SDS011;8928;51.678;6.074;2023-07-13T13:26:02;11.02;;;5.35;;
17618;SDS011;8928;51.678;6.074;2023-07-13T13:28:56;9.43;;;4.90;;
17618;SDS011;8928;51.678;6.074;2023-07-13T13:31:43;10.68;;;4.78;;
17618;SDS011;8928;51.678;6.074;2023-07-13T13:34:30;10.25;;;4.45;;
17618;SDS011;8928;51.678;6.074;2023-07-13T13:37:18;14.35;;;4.47;;
17618;SDS011;8928;51.678;6.074;2023-07-13T13:40:13;10.05;;;4.60;;
17618;SDS011;8928;51.678;6.074;2023-07-13T13:43:01;11.45;;;4.43;;
17618;SDS011;8928;51.678;6.074;2023-07-13T13:45:49;8.48;;;3.75;;
17618;SDS011;8928;51.678;6.074;2023-07-13T13:48:36;13.63;;;4.45;;
17618;SDS011;8928;51.678;6.074;2023-07-13T13:51:23;7.80;;;4.22;;
17618;SDS011;8928;51.678;6.074;2023-07-13T13:54:12;8.63;;;4.10;;
17618;SDS011;8928;51.678;6.074;2023-07-13T13:57:00;9.48;;;3.80;;
17618;SDS011;8928;51.678;6.074;2023-07-13T13:59:47;9.18;;;3.90;;
17618;SDS011;8928;51.678;6.074;2023-07-13T14:02:36;10.30;;;4.20;;
17618;SDS011;8928;51.678;6.074;2023-07-13T14:05:23;9.38;;;4.43;;
17618;SDS011;8928;51.678;6.074;2023-07-13T14:08:12;8.80;;;4.00;;
17618;SDS011;8928;51.678;6.074;2023-07-13T14:11:01;10.00;;;4.25;;
17618;SDS011;8928;51.678;6.074;2023-07-13T14:13:49;9.43;;;4.60;;
17618;SDS011;8928;51.678;6.074;2023-07-13T14:16:37;27.75;;;7.07;;
17618;SDS011;8928;51.678;6.074;2023-07-13T14:19:26;18.15;;;6.32;;
17618;SDS011;8928;51.678;6.074;2023-07-13T14:22:13;14.85;;;5.93;;
17618;SDS011;8928;51.678;6.074;2023-07-13T14:25:00;15.45;;;5.60;;
17618;SDS011;8928;51.678;6.074;2023-07-13T14:27:48;13.65;;;5.43;;
17618;SDS011;8928;51.678;6.074;2023-07-13T14:30:38;10.88;;;5.80;;
17618;SDS011;8928;51.678;6.074;2023-07-13T14:33:25;12.73;;;6.07;;
17618;SDS011;8928;51.678;6.074;2023-07-13T14:36:16;15.97;;;6.53;;
17618;SDS011;8928;51.678;6.074;2023-07-13T14:39:14;14.68;;;5.50;;
17618;SDS011;8928;51.678;6.074;2023-07-13T14:42:02;11.52;;;4.85;;
17618;SDS011;8928;51.678;6.074;2023-07-13T14:44:50;12.10;;;4.75;;
17618;SDS011;8928;51.678;6.074;2023-07-13T14:47:37;12.45;;;4.70;;
17618;SDS011;8928;51.678;6.074;2023-07-13T14:50:24;11.57;;;4.60;;
17618;SDS011;8928;51.678;6.074;2023-07-13T14:53:17;9.02;;;4.30;;
17618;SDS011;8928;51.678;6.074;2023-07-13T14:56:08;10.05;;;4.70;;
17618;SDS011;8928;51.678;6.074;2023-07-13T14:58:57;11.45;;;5.35;;
17618;SDS011;8928;51.678;6.074;2023-07-13T15:01:44;11.73;;;5.07;;
17618;SDS011;8928;51.678;6.074;2023-07-13T15:04:32;13.45;;;4.97;;
17618;SDS011;8928;51.678;6.074;2023-07-13T15:07:19;13.45;;;5.20;;
17618;SDS011;8928;51.678;6.074;2023-07-13T15:13:12;15.18;;;4.97;;
17618;SDS011;8928;51.678;6.074;2023-07-13T15:16:01;10.07;;;4.38;;
17618;SDS011;8928;51.678;6.074;2023-07-13T15:18:48;7.22;;;3.83;;
17618;SDS011;8928;51.678;6.074;2023-07-13T15:21:37;11.43;;;3.47;;
17618;SDS011;8928;51.678;6.074;2023-07-13T15:24:24;10.07;;;3.25;;
17618;SDS011;8928;51.678;6.074;2023-07-13T15:27:12;7.43;;;3.50;;
17618;SDS011;8928;51.678;6.074;2023-07-13T15:30:00;6.53;;;3.10;;
17618;SDS011;8928;51.678;6.074;2023-07-13T15:32:47;6.65;;;2.88;;
17618;SDS011;8928;51.678;6.074;2023-07-13T15:35:35;4.68;;;2.22;;
17618;SDS011;8928;51.678;6.074;2023-07-13T15:38:23;4.45;;;2.30;;
17618;SDS011;8928;51.678;6.074;2023-07-13T15:41:14;4.18;;;2.22;;
17618;SDS011;8928;51.678;6.074;2023-07-13T15:44:20;5.47;;;2.28;;
17618;SDS011;8928;51.678;6.074;2023-07-13T15:47:11;9.88;;;2.10;;
17618;SDS011;8928;51.678;6.074;2023-07-13T15:49:59;5.88;;;2.63;;
17618;SDS011;8928;51.678;6.074;2023-07-13T15:52:48;5.35;;;2.40;;
17618;SDS011;8928;51.678;6.074;2023-07-13T15:55:38;5.15;;;2.78;;
17618;SDS011;8928;51.678;6.074;2023-07-13T15:58:27;7.45;;;3.03;;
17618;SDS011;8928;51.678;6.074;2023-07-13T16:01:16;9.00;;;3.20;;
17618;SDS011;8928;51.678;6.074;2023-07-13T16:04:04;9.10;;;3.42;;
17618;SDS011;8928;51.678;6.074;2023-07-13T16:06:52;7.90;;;3.40;;
17618;SDS011;8928;51.678;6.074;2023-07-13T16:09:39;9.80;;;3.70;;
17618;SDS011;8928;51.678;6.074;2023-07-13T16:12:27;9.80;;;3.65;;
17618;SDS011;8928;51.678;6.074;2023-07-13T16:15:18;7.18;;;3.28;;
17618;SDS011;8928;51.678;6.074;2023-07-13T16:18:07;10.98;;;3.17;;
17618;SDS011;8928;51.678;6.074;2023-07-13T16:20:54;8.75;;;2.92;;
17618;SDS011;8928;51.678;6.074;2023-07-13T16:23:43;9.30;;;2.58;;
17618;SDS011;8928;51.678;6.074;2023-07-13T16:26:31;9.73;;;2.67;;
17618;SDS011;8928;51.678;6.074;2023-07-13T16:29:26;7.50;;;2.70;;
17618;SDS011;8928;51.678;6.074;2023-07-13T16:32:14;8.35;;;2.63;;
17618;SDS011;8928;51.678;6.074;2023-07-13T16:35:02;7.80;;;2.72;;
17618;SDS011;8928;51.678;6.074;2023-07-13T16:37:51;5.38;;;2.63;;
17618;SDS011;8928;51.678;6.074;2023-07-13T16:40:38;7.15;;;2.55;;
17618;SDS011;8928;51.678;6.074;2023-07-13T16:43:26;8.50;;;3.00;;
17618;SDS011;8928;51.678;6.074;2023-07-13T16:46:14;5.53;;;2.80;;
17618;SDS011;8928;51.678;6.074;2023-07-13T16:49:09;5.47;;;2.38;;
17618;SDS011;8928;51.678;6.074;2023-07-13T16:52:09;6.35;;;2.50;;
17618;SDS011;8928;51.678;6.074;2023-07-13T16:54:58;9.07;;;2.70;;
17618;SDS011;8928;51.678;6.074;2023-07-13T16:57:45;6.07;;;2.50;;
17618;SDS011;8928;51.678;6.074;2023-07-13T17:00:33;6.10;;;2.70;;
17618;SDS011;8928;51.678;6.074;2023-07-13T17:03:22;7.90;;;2.83;;
17618;SDS011;8928;51.678;6.074;2023-07-13T17:09:18;7.93;;;2.70;;
17618;SDS011;8928;51.678;6.074;2023-07-13T17:12:05;6.00;;;2.33;;